sensor_id;sensor_type;location;lat;lon;timestamp;pressure;altitude;pressure_sealevel;temperature;humidity
80745;BME280;70143;52.396;16.950;2023-05-19T00:01:03;101734.13;;;10.66;57.49
80745;BME280;70143;52.396;16.950;2023-05-19T00:03:29;101734.13;;;10.66;57.04
80745;BME280;70143;52.396;16.950;2023-05-19T00:05:55;101742.84;;;10.67;57.19
80745;BME280;70143;52.396;16.950;2023-05-19T00:08:22;101734.25;;;10.57;57.46
80745;BME280;70143;52.396;16.950;2023-05-19T00:10:48;101731.63;;;10.58;58.08
80745;BME280;70143;52.396;16.950;2023-05-19T00:13:14;101734.31;;;10.51;57.55
80745;BME280;70143;52.396;16.950;2023-05-19T00:15:40;101734.31;;;10.51;58.01
80745;BME280;70143;52.396;16.950;2023-05-19T00:18:05;101736.97;;;10.46;58.26
80745;BME280;70143;52.396;16.950;2023-05-19T00:20:31;101736.16;;;10.42;58.16
80745;BME280;70143;52.396;16.950;2023-05-19T00:22:56;101730.91;;;10.42;58.71
80745;BME280;70143;52.396;16.950;2023-05-19T00:25:22;101722.31;;;10.31;58.06
80745;BME280;70143;52.396;16.950;2023-05-19T00:27:47;101724.03;;;10.32;58.29
80745;BME280;70143;52.396;16.950;2023-05-19T00:30:13;101734.50;;;10.34;59.23
80745;BME280;70143;52.396;16.950;2023-05-19T00:32:38;101726.75;;;10.21;59.40
80745;BME280;70143;52.396;16.950;2023-05-19T00:35:04;101731.13;;;10.21;59.69
80745;BME280;70143;52.396;16.950;2023-05-19T00:37:30;101727.66;;;10.17;59.11
80745;BME280;70143;52.396;16.950;2023-05-19T00:39:55;101726.81;;;10.17;59.34
80745;BME280;70143;52.396;16.950;2023-05-19T00:42:20;101729.41;;;10.18;58.98
80745;BME280;70143;52.396;16.950;2023-05-19T00:44:46;101720.78;;;10.11;59.30
80745;BME280;70143;52.396;16.950;2023-05-19T00:47:11;101727.75;;;10.11;59.90
80745;BME280;70143;52.396;16.950;2023-05-19T00:49:37;101720.81;;;10.08;59.00
80745;BME280;70143;52.396;16.950;2023-05-19T00:52:05;101721.78;;;10.00;60.16
80745;BME280;70143;52.396;16.950;2023-05-19T00:54:32;101714.91;;;9.89;60.48
80745;BME280;70143;52.396;16.950;2023-05-19T00:56:59;101727.97;;;9.88;59.78
80745;BME280;70143;52.396;16.950;2023-05-19T00:59:26;101720.13;;;9.88;59.79
80745;BME280;70143;52.396;16.950;2023-05-19T01:01:51;101731.41;;;9.93;60.12
80745;BME280;70143;52.396;16.950;2023-05-19T01:04:20;101727.94;;;9.91;59.96
80745;BME280;70143;52.396;16.950;2023-05-19T01:06:50;101722.75;;;9.88;59.93
80745;BME280;70143;52.396;16.950;2023-05-19T01:09:16;101729.72;;;9.89;59.67
80745;BME280;70143;52.396;16.950;2023-05-19T01:11:43;101729.81;;;9.80;60.45
80745;BME280;70143;52.396;16.950;2023-05-19T01:14:09;101728.09;;;9.75;60.82
80745;BME280;70143;52.396;16.950;2023-05-19T01:16:42;101729.00;;;9.70;61.00
80745;BME280;70143;52.396;16.950;2023-05-19T01:19:30;101737.72;;;9.67;61.35
80745;BME280;70143;52.396;16.950;2023-05-19T01:32:57;101736.03;;;9.66;62.05
80745;BME280;70143;52.396;16.950;2023-05-19T01:35:25;101728.19;;;9.66;62.02
80745;BME280;70143;52.396;16.950;2023-05-19T01:37:56;101741.22;;;9.71;61.99
80745;BME280;70143;52.396;16.950;2023-05-19T01:40:23;101728.22;;;9.63;62.83
80745;BME280;70143;52.396;16.950;2023-05-19T01:42:51;101743.84;;;9.69;61.76
80745;BME280;70143;52.396;16.950;2023-05-19T01:45:18;101747.31;;;9.68;62.18
80745;BME280;70143;52.396;16.950;2023-05-19T01:47:49;101738.69;;;9.58;62.18
80745;BME280;70143;52.396;16.950;2023-05-19T01:50:14;101747.38;;;9.62;62.96
80745;BME280;70143;52.396;16.950;2023-05-19T01:52:40;101736.94;;;9.59;62.30
80745;BME280;70143;52.396;16.950;2023-05-19T01:55:06;101750.03;;;9.56;62.75
80745;BME280;70143;52.396;16.950;2023-05-19T02:09:36;101752.72;;;9.47;63.22
80745;BME280;70143;52.396;16.950;2023-05-19T02:12:10;101744.00;;;9.43;62.98
80745;BME280;70143;52.396;16.950;2023-05-19T02:15:01;101745.78;;;9.43;62.59
80745;BME280;70143;52.396;16.950;2023-05-19T02:17:31;101741.44;;;9.38;63.63
80745;BME280;70143;52.396;16.950;2023-05-19T02:19:57;101748.47;;;9.33;63.86
80745;BME280;70143;52.396;16.950;2023-05-19T02:22:23;101738.06;;;9.27;64.48
80745;BME280;70143;52.396;16.950;2023-05-19T02:24:49;101744.13;;;9.26;64.26
80745;BME280;70143;52.396;16.950;2023-05-19T02:27:15;101738.91;;;9.26;63.86
80745;BME280;70143;52.396;16.950;2023-05-19T02:29:40;101745.94;;;9.21;64.56
80745;BME280;70143;52.396;16.950;2023-05-19T02:32:06;101734.66;;;9.13;64.49
80745;BME280;70143;52.396;16.950;2023-05-19T02:34:31;101734.66;;;9.10;64.64
80745;BME280;70143;52.396;16.950;2023-05-19T02:36:57;101743.38;;;9.12;65.11
80745;BME280;70143;52.396;16.950;2023-05-19T02:39:22;101748.63;;;9.10;65.16
80745;BME280;70143;52.396;16.950;2023-05-19T02:41:48;101740.78;;;9.12;64.45
80745;BME280;70143;52.396;16.950;2023-05-19T02:44:13;101746.81;;;9.15;65.03
80745;BME280;70143;52.396;16.950;2023-05-19T02:46:39;101742.47;;;9.16;64.87
80745;BME280;70143;52.396;16.950;2023-05-19T02:49:06;101747.66;;;9.19;64.56
80745;BME280;70143;52.396;16.950;2023-05-19T02:51:32;101752.03;;;9.18;64.29
80745;BME280;70143;52.396;16.950;2023-05-19T02:53:57;101740.75;;;9.13;64.44
80745;BME280;70143;52.396;16.950;2023-05-19T02:56:23;101740.72;;;9.18;64.70
80745;BME280;70143;52.396;16.950;2023-05-19T02:58:48;101740.72;;;9.18;64.71
80745;BME280;70143;52.396;16.950;2023-05-19T03:01:14;101735.59;;;9.05;65.40
80745;BME280;70143;52.396;16.950;2023-05-19T03:03:39;101743.41;;;9.09;65.44
80745;BME280;70143;52.396;16.950;2023-05-19T03:06:05;101745.13;;;9.06;65.80
80745;BME280;70143;52.396;16.950;2023-05-19T03:08:30;101743.44;;;9.04;66.39
80745;BME280;70143;52.396;16.950;2023-05-19T03:10:56;101740.81;;;9.02;65.70
80745;BME280;70143;52.396;16.950;2023-05-19T03:13:22;101735.59;;;9.05;66.11
80745;BME280;70143;52.396;16.950;2023-05-19T03:15:48;101735.59;;;9.05;66.12
80745;BME280;70143;52.396;16.950;2023-05-19T03:18:13;101729.53;;;8.94;66.52
80745;BME280;70143;52.396;16.950;2023-05-19T03:20:38;101729.50;;;9.00;65.88
80745;BME280;70143;52.396;16.950;2023-05-19T03:23:04;101736.47;;;9.01;66.23
80745;BME280;70143;52.396;16.950;2023-05-19T03:25:30;101733.81;;;9.08;66.23
80745;BME280;70143;52.396;16.950;2023-05-19T03:27:56;101726.78;;;9.16;66.01
80745;BME280;70143;52.396;16.950;2023-05-19T03:30:23;101733.69;;;9.29;65.51
80745;BME280;70143;52.396;16.950;2023-05-19T03:32:52;101730.22;;;9.27;65.72
80745;BME280;70143;52.396;16.950;2023-05-19T03:35:17;101726.69;;;9.34;65.83
80745;BME280;70143;52.396;16.950;2023-05-19T03:37:44;101728.41;;;9.35;65.35
80745;BME280;70143;52.396;16.950;2023-05-19T03:40:09;101727.59;;;9.30;65.35
80745;BME280;70143;52.396;16.950;2023-05-19T03:42:36;101731.91;;;9.34;65.31
80745;BME280;70143;52.396;16.950;2023-05-19T03:45:02;101730.19;;;9.30;65.76
80745;BME280;70143;52.396;16.950;2023-05-19T03:47:27;101737.97;;;9.36;65.35
80745;BME280;70143;52.396;16.950;2023-05-19T03:49:53;101731.94;;;9.31;66.14
80745;BME280;70143;52.396;16.950;2023-05-19T03:52:18;101735.31;;;9.43;65.23
80745;BME280;70143;52.396;16.950;2023-05-19T03:54:43;101730.13;;;9.39;65.58
80745;BME280;70143;52.396;16.950;2023-05-19T03:57:09;101735.38;;;9.35;65.87
80745;BME280;70143;52.396;16.950;2023-05-19T03:59:36;101734.47;;;9.44;65.93
80745;BME280;70143;52.396;16.950;2023-05-19T04:02:02;101742.28;;;9.44;65.52
80745;BME280;70143;52.396;16.950;2023-05-19T04:04:27;101732.69;;;9.44;65.81
80745;BME280;70143;52.396;16.950;2023-05-19T04:06:54;101743.19;;;9.41;66.25
80745;BME280;70143;52.396;16.950;2023-05-19T04:09:20;101738.69;;;9.60;65.17
80745;BME280;70143;52.396;16.950;2023-05-19T04:11:45;101738.47;;;9.83;64.89
80745;BME280;70143;52.396;16.950;2023-05-19T04:14:11;101735.81;;;9.88;64.27
80745;BME280;70143;52.396;16.950;2023-05-19T04:16:36;101739.19;;;9.98;64.07
80745;BME280;70143;52.396;16.950;2023-05-19T04:19:02;101743.44;;;10.11;63.41
80745;BME280;70143;52.396;16.950;2023-05-19T04:21:27;101751.16;;;10.22;63.08
80745;BME280;70143;52.396;16.950;2023-05-19T04:23:53;101738.03;;;10.28;63.02
80745;BME280;70143;52.396;16.950;2023-05-19T04:26:18;101743.28;;;10.28;62.55
80745;BME280;70143;52.396;16.950;2023-05-19T04:28:44;101737.25;;;10.18;63.04
80745;BME280;70143;52.396;16.950;2023-05-19T04:31:10;101741.47;;;10.36;62.23
80745;BME280;70143;52.396;16.950;2023-05-19T04:33:39;101744.00;;;10.44;62.59
80745;BME280;70143;52.396;16.950;2023-05-19T04:36:06;101734.13;;;10.66;61.33
80745;BME280;70143;52.396;16.950;2023-05-19T04:38:31;101735.69;;;10.79;61.15
80745;BME280;70143;52.396;16.950;2023-05-19T04:40:57;101740.69;;;10.98;60.56
80745;BME280;70143;52.396;16.950;2023-05-19T04:43:22;101733.66;;;11.00;59.85
80745;BME280;70143;52.396;16.950;2023-05-19T04:45:48;101741.28;;;11.17;59.91
80745;BME280;70143;52.396;16.950;2023-05-19T04:48:13;101735.69;;;11.42;59.01
80745;BME280;70143;52.396;16.950;2023-05-19T04:50:39;101746.94;;;11.48;59.08
80745;BME280;70143;52.396;16.950;2023-05-19T04:53:04;101751.81;;;11.70;58.99
80745;BME280;70143;52.396;16.950;2023-05-19T04:55:29;101755.13;;;11.81;58.83
80745;BME280;70143;52.396;16.950;2023-05-19T04:57:55;101748.72;;;12.01;57.73
80745;BME280;70143;52.396;16.950;2023-05-19T05:00:20;101757.34;;;12.06;57.54
80745;BME280;70143;52.396;16.950;2023-05-19T05:02:46;101752.72;;;12.20;57.65
80745;BME280;70143;52.396;16.950;2023-05-19T05:05:11;101755.91;;;12.36;57.13
80745;BME280;70143;52.396;16.950;2023-05-19T05:07:37;101758.22;;;12.52;56.54
80745;BME280;70143;52.396;16.950;2023-05-19T05:10:02;101748.41;;;12.62;56.75
80745;BME280;70143;52.396;16.950;2023-05-19T05:12:28;101747.09;;;12.83;56.01
80745;BME280;70143;52.396;16.950;2023-05-19T05:14:54;101751.06;;;13.02;56.10
80745;BME280;70143;52.396;16.950;2023-05-19T05:17:20;101754.06;;;13.23;55.54
80745;BME280;70143;52.396;16.950;2023-05-19T05:19:45;101737.00;;;13.42;55.31
80745;BME280;70143;52.396;16.950;2023-05-19T05:22:11;101730.66;;;13.51;54.37
80745;BME280;70143;52.396;16.950;2023-05-19T05:24:37;101735.78;;;13.57;54.26
80745;BME280;70143;52.396;16.950;2023-05-19T05:27:03;101735.28;;;13.76;53.72
80745;BME280;70143;52.396;16.950;2023-05-19T05:29:28;101741.56;;;13.72;53.75
80745;BME280;70143;52.396;16.950;2023-05-19T05:31:53;101747.66;;;13.72;53.92
80745;BME280;70143;52.396;16.950;2023-05-19T05:34:19;101739.72;;;13.75;53.71
80745;BME280;70143;52.396;16.950;2023-05-19T05:36:44;101742.88;;;13.88;53.06
80745;BME280;70143;52.396;16.950;2023-05-19T05:39:10;101732.47;;;13.83;53.64
80745;BME280;70143;52.396;16.950;2023-05-19T05:41:36;101738.88;;;14.06;53.38
80745;BME280;70143;52.396;16.950;2023-05-19T05:44:02;101739.19;;;14.28;52.55
80745;BME280;70143;52.396;16.950;2023-05-19T05:46:27;101741.69;;;14.33;52.46
80745;BME280;70143;52.396;16.950;2023-05-19T05:48:53;101742.34;;;14.40;52.57
80745;BME280;70143;52.396;16.950;2023-05-19T05:51:22;101739.84;;;14.35;52.31
80745;BME280;70143;52.396;16.950;2023-05-19T05:53:53;101740.59;;;14.40;52.55
80745;BME280;70143;52.396;16.950;2023-05-19T05:56:19;101746.13;;;14.62;52.11
80745;BME280;70143;52.396;16.950;2023-05-19T05:58:46;101740.03;;;14.92;51.42
80745;BME280;70143;52.396;16.950;2023-05-19T06:01:12;101750.97;;;15.06;51.06
80745;BME280;70143;52.396;16.950;2023-05-19T06:03:39;101748.75;;;15.22;50.60
80745;BME280;70143;52.396;16.950;2023-05-19T06:06:05;101738.09;;;15.25;49.60
80745;BME280;70143;52.396;16.950;2023-05-19T06:08:30;101749.09;;;15.11;50.03
80745;BME280;70143;52.396;16.950;2023-05-19T06:10:56;101747.09;;;15.18;50.46
80745;BME280;70143;52.396;16.950;2023-05-19T06:13:21;101743.94;;;15.35;50.33
80745;BME280;70143;52.396;16.950;2023-05-19T06:15:47;101742.63;;;15.48;49.65
80745;BME280;70143;52.396;16.950;2023-05-19T06:18:12;101756.34;;;15.59;49.35
80745;BME280;70143;52.396;16.950;2023-05-19T06:20:37;101747.03;;;15.74;49.06
80745;BME280;70143;52.396;16.950;2023-05-19T06:23:03;101753.38;;;15.69;48.83
80745;BME280;70143;52.396;16.950;2023-05-19T06:25:28;101751.56;;;15.71;48.95
80745;BME280;70143;52.396;16.950;2023-05-19T06:27:54;101758.28;;;16.06;48.70
80745;BME280;70143;52.396;16.950;2023-05-19T06:30:19;101750.34;;;16.08;47.77
80745;BME280;70143;52.396;16.950;2023-05-19T06:32:45;101756.41;;;16.10;47.32
80745;BME280;70143;52.396;16.950;2023-05-19T06:35:10;101763.28;;;16.39;46.92
80745;BME280;70143;52.396;16.950;2023-05-19T06:37:36;101753.31;;;15.97;47.90
80745;BME280;70143;52.396;16.950;2023-05-19T06:40:03;101756.34;;;16.11;47.54
80745;BME280;70143;52.396;16.950;2023-05-19T06:42:28;101752.78;;;16.38;47.24
80745;BME280;70143;52.396;16.950;2023-05-19T06:44:54;101758.00;;;16.39;47.09
80745;BME280;70143;52.396;16.950;2023-05-19T06:47:20;101761.53;;;16.40;46.99
80745;BME280;70143;52.396;16.950;2023-05-19T06:49:45;101754.44;;;16.40;46.70
80745;BME280;70143;52.396;16.950;2023-05-19T06:52:12;101762.09;;;16.23;47.23
80745;BME280;70143;52.396;16.950;2023-05-19T06:54:38;101755.28;;;16.17;46.86
80745;BME280;70143;52.396;16.950;2023-05-19T06:57:05;101758.72;;;15.94;47.36
80745;BME280;70143;52.396;16.950;2023-05-19T06:59:31;101763.88;;;15.97;48.30
80745;BME280;70143;52.396;16.950;2023-05-19T07:01:56;101755.44;;;16.12;47.68
80745;BME280;70143;52.396;16.950;2023-05-19T07:04:22;101765.19;;;16.36;47.42
80745;BME280;70143;52.396;16.950;2023-05-19T07:06:47;101766.13;;;16.58;46.59
80745;BME280;70143;52.396;16.950;2023-05-19T07:09:13;101754.69;;;16.81;46.44
80745;BME280;70143;52.396;16.950;2023-05-19T07:11:39;101763.53;;;17.04;45.46
80745;BME280;70143;52.396;16.950;2023-05-19T07:14:04;101771.19;;;17.34;44.96
80745;BME280;70143;52.396;16.950;2023-05-19T07:16:30;101757.00;;;17.35;44.82
80745;BME280;70143;52.396;16.950;2023-05-19T07:18:55;101750.66;;;17.18;45.08
80745;BME280;70143;52.396;16.950;2023-05-19T07:21:21;101758.47;;;16.98;45.39
80745;BME280;70143;52.396;16.950;2023-05-19T07:23:46;101755.94;;;17.18;44.96
80745;BME280;70143;52.396;16.950;2023-05-19T07:26:12;101759.84;;;16.84;45.60
80745;BME280;70143;52.396;16.950;2023-05-19T07:28:37;101761.06;;;16.99;45.64
80745;BME280;70143;52.396;16.950;2023-05-19T07:31:02;101761.09;;;17.22;45.13
80745;BME280;70143;52.396;16.950;2023-05-19T07:33:28;101760.59;;;17.34;45.01
80745;BME280;70143;52.396;16.950;2023-05-19T07:36:05;101738.28;;;17.62;44.04
80745;BME280;70143;52.396;16.950;2023-05-19T07:38:33;101750.03;;;17.54;43.90
80745;BME280;70143;52.396;16.950;2023-05-19T07:41:00;101746.56;;;17.54;43.92
80745;BME280;70143;52.396;16.950;2023-05-19T07:43:26;101750.53;;;17.64;44.02
80745;BME280;70143;52.396;16.950;2023-05-19T07:45:51;101750.22;;;17.72;43.99
80745;BME280;70143;52.396;16.950;2023-05-19T07:48:17;101753.91;;;17.68;43.49
80745;BME280;70143;52.396;16.950;2023-05-19T07:50:43;101743.91;;;17.54;43.93
80745;BME280;70143;52.396;16.950;2023-05-19T07:53:08;101755.25;;;17.78;43.95
80745;BME280;70143;52.396;16.950;2023-05-19T07:55:34;101742.78;;;17.60;43.42
80745;BME280;70143;52.396;16.950;2023-05-19T07:58:00;101747.81;;;17.66;43.60
80745;BME280;70143;52.396;16.950;2023-05-19T08:00:26;101751.06;;;17.95;43.74
80745;BME280;70143;52.396;16.950;2023-05-19T08:02:51;101743.75;;;17.79;42.97
80745;BME280;70143;52.396;16.950;2023-05-19T08:05:16;101738.03;;;17.47;43.70
80745;BME280;70143;52.396;16.950;2023-05-19T08:07:42;101746.47;;;17.78;43.75
80745;BME280;70143;52.396;16.950;2023-05-19T08:10:07;101740.84;;;18.06;42.94
80745;BME280;70143;52.396;16.950;2023-05-19T08:12:33;101740.28;;;18.39;42.66
80745;BME280;70143;52.396;16.950;2023-05-19T08:14:59;101742.72;;;18.43;42.60
80745;BME280;70143;52.396;16.950;2023-05-19T08:17:25;101740.97;;;18.23;42.39
80745;BME280;70143;52.396;16.950;2023-05-19T08:19:50;101738.06;;;18.09;42.79
80745;BME280;70143;52.396;16.950;2023-05-19T08:22:16;101733.97;;;18.02;43.43
80745;BME280;70143;52.396;16.950;2023-05-19T08:27:13;101747.94;;;18.45;42.60
80745;BME280;70143;52.396;16.950;2023-05-19T08:29:39;101737.31;;;18.66;42.30
80745;BME280;70143;52.396;16.950;2023-05-19T08:32:04;101738.22;;;18.65;41.99
80745;BME280;70143;52.396;16.950;2023-05-19T08:34:30;101740.94;;;18.63;41.66
80745;BME280;70143;52.396;16.950;2023-05-19T08:36:57;101738.44;;;18.60;41.38
80745;BME280;70143;52.396;16.950;2023-05-19T08:39:23;101744.31;;;18.67;41.46
80745;BME280;70143;52.396;16.950;2023-05-19T08:41:49;101746.78;;;18.71;41.36
80745;BME280;70143;52.396;16.950;2023-05-19T08:44:15;101743.84;;;18.77;41.73
80745;BME280;70143;52.396;16.950;2023-05-19T08:46:40;101731.84;;;18.69;41.87
80745;BME280;70143;52.396;16.950;2023-05-19T08:49:12;101732.75;;;18.88;41.47
80745;BME280;70143;52.396;16.950;2023-05-19T08:52:01;101734.75;;;19.02;41.09
80745;BME280;70143;52.396;16.950;2023-05-19T08:54:42;101729.81;;;19.48;40.63
80745;BME280;70143;52.396;16.950;2023-05-19T08:57:11;101728.97;;;19.65;39.24
80745;BME280;70143;52.396;16.950;2023-05-19T08:59:38;101734.06;;;19.88;39.15
80745;BME280;70143;52.396;16.950;2023-05-19T09:02:04;101728.50;;;20.10;38.84
80745;BME280;70143;52.396;16.950;2023-05-19T09:04:31;101740.19;;;19.90;38.99
80745;BME280;70143;52.396;16.950;2023-05-19T09:06:56;101738.63;;;20.19;38.19
80745;BME280;70143;52.396;16.950;2023-05-19T09:09:22;101735.72;;;20.41;37.92
80745;BME280;70143;52.396;16.950;2023-05-19T09:11:47;101732.22;;;20.56;36.82
80745;BME280;70143;52.396;16.950;2023-05-19T09:14:13;101736.13;;;20.67;37.40
80745;BME280;70143;52.396;16.950;2023-05-19T09:16:38;101736.19;;;20.65;37.13
80745;BME280;70143;52.396;16.950;2023-05-19T09:19:04;101728.50;;;20.92;36.35
80745;BME280;70143;52.396;16.950;2023-05-19T09:21:31;101730.63;;;20.86;35.94
80745;BME280;70143;52.396;16.950;2023-05-19T09:24:02;101732.84;;;20.94;36.10
80745;BME280;70143;52.396;16.950;2023-05-19T09:26:38;101729.25;;;20.79;35.82
80745;BME280;70143;52.396;16.950;2023-05-19T09:29:21;101731.13;;;20.77;36.32
80745;BME280;70143;52.396;16.950;2023-05-19T09:31:55;101735.19;;;20.84;36.17
80745;BME280;70143;52.396;16.950;2023-05-19T09:34:21;101727.81;;;20.73;36.55
80745;BME280;70143;52.396;16.950;2023-05-19T09:36:47;101727.47;;;20.79;36.35
80745;BME280;70143;52.396;16.950;2023-05-19T09:39:17;101723.78;;;20.82;36.16
80745;BME280;70143;52.396;16.950;2023-05-19T09:41:43;101729.94;;;20.82;36.83
80745;BME280;70143;52.396;16.950;2023-05-19T09:44:14;101723.25;;;20.91;35.98
80745;BME280;70143;52.396;16.950;2023-05-19T09:46:52;101724.09;;;21.07;35.92
80745;BME280;70143;52.396;16.950;2023-05-19T09:49:25;101727.34;;;21.13;35.36
80745;BME280;70143;52.396;16.950;2023-05-19T09:51:54;101734.31;;;20.50;36.25
80745;BME280;70143;52.396;16.950;2023-05-19T09:54:20;101737.97;;;20.31;36.40
80745;BME280;70143;52.396;16.950;2023-05-19T09:56:50;101722.91;;;19.81;37.06
80745;BME280;70143;52.396;16.950;2023-05-19T09:59:17;101728.16;;;19.82;37.04
80745;BME280;70143;52.396;16.950;2023-05-19T10:01:44;101730.22;;;19.58;36.83
80745;BME280;70143;52.396;16.950;2023-05-19T10:04:12;101714.13;;;19.44;37.78
80745;BME280;70143;52.396;16.950;2023-05-19T10:06:38;101715.31;;;19.38;38.27
80745;BME280;70143;52.396;16.950;2023-05-19T10:09:04;101724.16;;;19.56;38.58
80745;BME280;70143;52.396;16.950;2023-05-19T10:11:30;101718.38;;;19.65;38.39
80745;BME280;70143;52.396;16.950;2023-05-19T10:13:56;101719.91;;;19.69;38.48
80745;BME280;70143;52.396;16.950;2023-05-19T10:16:23;101721.00;;;19.48;39.04
80745;BME280;70143;52.396;16.950;2023-05-19T10:18:51;101712.66;;;19.38;39.02
80745;BME280;70143;52.396;16.950;2023-05-19T10:21:19;101711.03;;;19.17;39.61
80745;BME280;70143;52.396;16.950;2023-05-19T10:23:44;101710.94;;;19.01;39.69
80745;BME280;70143;52.396;16.950;2023-05-19T10:26:11;101716.06;;;18.85;40.43
80745;BME280;70143;52.396;16.950;2023-05-19T10:28:40;101718.53;;;18.89;40.01
80745;BME280;70143;52.396;16.950;2023-05-19T10:31:10;101701.34;;;18.60;40.51
80745;BME280;70143;52.396;16.950;2023-05-19T10:39:33;101721.75;;;17.77;42.41
80745;BME280;70143;52.396;16.950;2023-05-19T10:47:34;101722.75;;;17.32;43.92
80745;BME280;70143;52.396;16.950;2023-05-19T10:50:01;101715.94;;;17.26;44.43
80745;BME280;70143;52.396;16.950;2023-05-19T10:52:26;101714.34;;;17.44;44.24
80745;BME280;70143;52.396;16.950;2023-05-19T10:54:52;101710.75;;;17.45;43.83
80745;BME280;70143;52.396;16.950;2023-05-19T10:57:19;101717.78;;;17.46;43.75
80745;BME280;70143;52.396;16.950;2023-05-19T10:59:44;101718.03;;;17.40;43.97
80745;BME280;70143;52.396;16.950;2023-05-19T11:02:36;101725.16;;;17.38;44.11
80745;BME280;70143;52.396;16.950;2023-05-19T11:05:07;101723.00;;;17.26;44.44
80745;BME280;70143;52.396;16.950;2023-05-19T11:07:33;101720.50;;;17.23;44.55
80745;BME280;70143;52.396;16.950;2023-05-19T11:09:58;101720.44;;;17.24;44.57
80745;BME280;70143;52.396;16.950;2023-05-19T11:12:24;101710.84;;;17.22;44.92
80745;BME280;70143;52.396;16.950;2023-05-19T11:14:56;101721.72;;;17.36;44.67
80745;BME280;70143;52.396;16.950;2023-05-19T11:17:24;101716.59;;;17.53;44.43
80745;BME280;70143;52.396;16.950;2023-05-19T11:19:56;101715.81;;;18.13;43.71
80745;BME280;70143;52.396;16.950;2023-05-19T11:22:23;101713.31;;;18.69;42.44
80745;BME280;70143;52.396;16.950;2023-05-19T11:24:49;101709.06;;;19.03;41.54
80745;BME280;70143;52.396;16.950;2023-05-19T11:30:10;101702.72;;;19.24;40.24
80745;BME280;70143;52.396;16.950;2023-05-19T11:32:36;101699.19;;;19.24;40.73
80745;BME280;70143;52.396;16.950;2023-05-19T11:35:01;101693.69;;;19.63;39.56
80745;BME280;70143;52.396;16.950;2023-05-19T11:37:30;101707.19;;;19.94;38.97
80745;BME280;70143;52.396;16.950;2023-05-19T11:39:57;101697.88;;;20.36;38.11
80745;BME280;70143;52.396;16.950;2023-05-19T11:42:25;101692.34;;;21.04;36.61
80745;BME280;70143;52.396;16.950;2023-05-19T11:44:54;101693.06;;;21.22;36.14
80745;BME280;70143;52.396;16.950;2023-05-19T11:47:19;101690.13;;;21.73;34.76
80745;BME280;70143;52.396;16.950;2023-05-19T11:49:49;101684.03;;;21.71;34.78
80745;BME280;70143;52.396;16.950;2023-05-19T11:52:15;101687.41;;;21.89;35.12
80745;BME280;70143;52.396;16.950;2023-05-19T11:54:40;101697.94;;;21.76;34.42
80745;BME280;70143;52.396;16.950;2023-05-19T11:57:07;101691.09;;;21.87;34.69
80745;BME280;70143;52.396;16.950;2023-05-19T11:59:37;101696.81;;;21.95;34.29
80745;BME280;70143;52.396;16.950;2023-05-19T12:04:41;101705.28;;;21.57;34.39
80745;BME280;70143;52.396;16.950;2023-05-19T12:07:06;101709.78;;;21.71;34.53
80745;BME280;70143;52.396;16.950;2023-05-19T12:09:33;101711.00;;;22.10;34.09
80745;BME280;70143;52.396;16.950;2023-05-19T12:11:59;101691.88;;;22.18;33.77
80745;BME280;70143;52.396;16.950;2023-05-19T12:14:28;101698.25;;;22.01;33.70
80745;BME280;70143;52.396;16.950;2023-05-19T12:16:54;101695.41;;;22.32;33.55
80745;BME280;70143;52.396;16.950;2023-05-19T12:19:22;101691.94;;;21.73;33.97
80745;BME280;70143;52.396;16.950;2023-05-19T12:21:48;101694.75;;;21.55;34.48
80745;BME280;70143;52.396;16.950;2023-05-19T12:24:15;101707.00;;;21.12;35.34
80745;BME280;70143;52.396;16.950;2023-05-19T12:26:41;101702.22;;;21.02;35.87
80745;BME280;70143;52.396;16.950;2023-05-19T12:29:06;101703.78;;;20.74;36.47
80745;BME280;70143;52.396;16.950;2023-05-19T12:31:33;101703.25;;;20.84;36.35
80745;BME280;70143;52.396;16.950;2023-05-19T12:33:59;101694.88;;;20.42;36.91
80745;BME280;70143;52.396;16.950;2023-05-19T12:36:24;101692.53;;;20.20;37.48
80745;BME280;70143;52.396;16.950;2023-05-19T12:38:58;101684.38;;;20.56;36.95
80745;BME280;70143;52.396;16.950;2023-05-19T12:41:28;101684.38;;;20.72;36.80
80745;BME280;70143;52.396;16.950;2023-05-19T12:43:54;101688.38;;;20.48;37.25
80745;BME280;70143;52.396;16.950;2023-05-19T12:46:19;101693.72;;;20.14;37.17
80745;BME280;70143;52.396;16.950;2023-05-19T12:48:45;101692.50;;;20.04;37.79
80745;BME280;70143;52.396;16.950;2023-05-19T12:51:18;101692.44;;;19.71;37.78
80745;BME280;70143;52.396;16.950;2023-05-19T12:53:45;101705.50;;;19.58;38.32
80745;BME280;70143;52.396;16.950;2023-05-19T12:56:12;101693.34;;;19.35;39.91
80745;BME280;70143;52.396;16.950;2023-05-19T12:58:37;101695.25;;;19.32;39.96
80745;BME280;70143;52.396;16.950;2023-05-19T13:01:05;101696.81;;;19.37;40.17
80745;BME280;70143;52.396;16.950;2023-05-19T13:03:32;101688.13;;;19.15;40.31
80745;BME280;70143;52.396;16.950;2023-05-19T13:06:03;101679.75;;;19.06;40.91
80745;BME280;70143;52.396;16.950;2023-05-19T13:08:28;101680.56;;;19.08;40.79
80745;BME280;70143;52.396;16.950;2023-05-19T13:10:54;101675.94;;;19.11;40.58
80745;BME280;70143;52.396;16.950;2023-05-19T13:13:19;101685.56;;;19.31;40.16
80745;BME280;70143;52.396;16.950;2023-05-19T13:15:46;101695.88;;;19.55;40.18
80745;BME280;70143;52.396;16.950;2023-05-19T13:18:12;101701.94;;;19.57;40.21
80745;BME280;70143;52.396;16.950;2023-05-19T13:20:39;101704.22;;;19.47;40.16
80745;BME280;70143;52.396;16.950;2023-05-19T13:23:05;101697.63;;;19.20;41.11